Time;durP1;ratioP1;P1;durP2;ratioP2;P2;SDS_P1;SDS_P2;PMS_P1;PMS_P2;Temp;Humidity;BMP_temperature;BMP_pressure;BME280_temperature;BME280_humidity;BME280_pressure;Samples;Min_cycle;Max_cycle;Signal;HPM_P1;HPM_P2
2023/09/11 00:00:39;;;;;;;8.93;8.10;;;;;;;21.91;72.57;156998.09;5066623;28;20445;-86
2023/09/11 00:03:06;;;;;;;8.90;8.00;;;;;;;21.91;72.04;156998.09;5066448;28;21049;-86
2023/09/11 00:05:32;;;;;;;9.57;8.00;;;;;;;21.91;72.19;156998.09;5042790;28;20455;-86
2023/09/11 00:07:59;;;;;;;10.20;9.20;;;;;;;21.92;71.94;157002.03;5047684;28;20508;-86
2023/09/11 00:10:27;;;;;;;9.13;8.10;;;;;;;21.96;72.14;157011.16;5047869;28;20937;-86
2023/09/11 00:12:54;;;;;;;9.20;8.13;;;;;;;21.93;71.97;157004.63;5048278;28;20453;-86
2023/09/11 00:15:21;;;;;;;9.50;8.60;;;;;;;21.91;71.94;156998.09;5059602;28;20925;-86
2023/09/11 00:17:48;;;;;;;9.57;8.67;;;;;;;21.86;72.49;156986.38;5056714;28;20453;-86
2023/09/11 00:20:15;;;;;;;9.10;8.20;;;;;;;21.83;72.82;156978.47;5054665;28;20531;-86
2023/09/11 00:22:44;;;;;;;10.23;9.23;;;;;;;21.78;73.22;156965.41;5037972;28;20819;-87
2023/09/11 00:25:12;;;;;;;9.67;8.77;;;;;;;21.73;73.00;156953.69;5061715;28;20442;-86
2023/09/11 00:27:40;;;;;;;9.47;8.50;;;;;;;21.73;73.01;156953.69;5070545;28;20458;-86
2023/09/11 00:30:08;;;;;;;9.10;8.23;;;;;;;21.74;73.33;156956.25;5071346;28;20858;-86
2023/09/11 00:32:35;;;;;;;9.00;8.20;;;;;;;21.70;73.53;156945.84;5069778;28;20460;-86
2023/09/11 00:35:01;;;;;;;9.53;8.67;;;;;;;21.66;73.19;156935.38;5059322;28;20493;-86
2023/09/11 00:37:30;;;;;;;9.27;8.47;;;;;;;21.63;72.76;156926.28;5051010;28;20874;-86
2023/09/11 00:39:57;;;;;;;10.00;9.10;;;;;;;21.60;73.48;156919.75;5072009;28;20512;-86
2023/09/11 00:42:24;;;;;;;9.93;8.43;;;;;;;21.63;73.50;156926.28;5050166;28;20473;-86
2023/09/11 00:44:53;;;;;;;9.00;8.20;;;;;;;21.61;73.71;156921.00;5054565;28;20476;-87
2023/09/11 00:47:22;;;;;;;10.27;9.00;;;;;;;21.58;73.81;156914.47;5053284;28;20466;-87
2023/09/11 00:49:49;;;;;;;9.97;9.00;;;;;;;21.54;74.17;156904.06;5069082;28;20440;-86
2023/09/11 00:52:16;;;;;;;11.17;8.87;;;;;;;21.54;74.59;156902.75;5051422;28;20469;-86
2023/09/11 00:54:48;;;;;;;9.60;8.70;;;;;;;21.51;74.70;156894.91;5059310;28;20431;-86
2023/09/11 00:57:17;;;;;;;9.80;8.90;;;;;;;21.48;74.80;156888.38;5048808;28;20458;-86
2023/09/11 00:59:45;;;;;;;9.80;8.80;;;;;;;21.44;74.80;156877.97;5031925;28;20450;-86
2023/09/11 01:02:16;;;;;;;10.37;9.47;;;;;;;21.42;75.75;156872.72;5064852;28;20462;-86
2023/09/11 01:04:43;;;;;;;9.40;8.50;;;;;;;21.36;75.56;156857.09;5066534;28;20458;-87
2023/09/11 01:07:12;;;;;;;10.37;8.33;;;;;;;21.35;75.61;156854.44;5069507;28;20770;-87
2023/09/11 01:09:41;;;;;;;9.93;9.00;;;;;;;21.36;75.77;156855.75;5063775;28;20850;-87
2023/09/11 01:12:08;;;;;;;10.30;9.17;;;;;;;21.34;75.56;156850.56;5069664;28;20485;-86
2023/09/11 01:14:38;;;;;;;10.20;9.20;;;;;;;21.32;75.68;156845.31;5052636;28;20438;-87
2023/09/11 01:17:11;;;;;;;10.43;9.07;;;;;;;21.28;75.96;156836.19;5069788;28;20450;-86
2023/09/11 01:19:55;;;;;;;12.90;10.00;;;;;;;21.27;76.15;156833.56;5065709;28;20463;-86
2023/09/11 01:22:47;;;;;;;9.87;8.97;;;;;;;21.23;75.56;156823.16;5051048;28;20446;-86
2023/09/11 01:25:33;;;;;;;12.37;10.10;;;;;;;21.22;76.31;156820.53;5063664;28;20481;-86
2023/09/11 01:28:20;;;;;;;10.97;9.87;;;;;;;21.19;76.46;156812.69;5067154;28;20545;-86
2023/09/11 01:30:50;;;;;;;13.37;10.23;;;;;;;21.16;77.22;156804.84;5069637;28;20418;-86
2023/09/11 01:33:21;;;;;;;11.00;9.90;;;;;;;21.12;77.20;156795.75;5085728;28;20453;-86
2023/09/11 01:35:51;;;;;;;11.53;10.30;;;;;;;21.08;77.54;156785.28;5064965;28;20585;-87
2023/09/11 01:38:18;;;;;;;11.83;9.87;;;;;;;21.04;78.12;156773.50;5032281;28;20454;-87
2023/09/11 01:40:49;;;;;;;10.70;9.70;;;;;;;20.99;78.40;156760.44;5050389;28;20427;-87
2023/09/11 01:43:16;;;;;;;11.60;9.60;;;;;;;20.96;78.72;156753.94;5032382;28;20457;-86
2023/09/11 01:45:43;;;;;;;11.70;10.50;;;;;;;20.94;78.52;156747.41;5057974;28;20453;-87
2023/09/11 01:48:15;;;;;;;14.53;10.30;;;;;;;20.94;78.44;156747.41;5064271;28;20493;-87
2023/09/11 01:50:43;;;;;;;10.17;9.17;;;;;;;20.90;79.01;156738.25;5060937;28;20550;-87
2023/09/11 01:53:09;;;;;;;11.13;10.13;;;;;;;20.87;79.40;156729.09;5064518;28;20651;-87
2023/09/11 01:55:38;;;;;;;10.87;9.47;;;;;;;20.84;79.44;156721.28;5052018;28;20466;-87
2023/09/11 01:58:05;;;;;;;10.40;9.50;;;;;;;20.80;79.61;156710.84;5031280;28;20459;-87
2023/09/11 02:00:32;;;;;;;9.90;9.00;;;;;;;20.78;80.12;156705.66;5032155;28;21064;-87
2023/09/11 02:02:59;;;;;;;11.67;9.83;;;;;;;20.77;80.40;156704.34;5049484;28;20454;-88
2023/09/11 02:05:27;;;;;;;11.50;10.00;;;;;;;20.78;80.34;156705.66;5046761;28;20513;-87
2023/09/11 02:07:54;;;;;;;10.37;9.37;;;;;;;20.76;80.42;156701.72;5031846;28;20494;-86
2023/09/11 02:10:23;;;;;;;12.07;10.87;;;;;;;20.75;80.95;156697.81;5032544;28;20453;-86
2023/09/11 02:12:50;;;;;;;11.67;10.47;;;;;;;20.69;81.25;156682.16;5069133;28;20454;-87
2023/09/11 02:15:20;;;;;;;10.73;9.73;;;;;;;20.67;81.01;156676.94;5048528;28;20996;-87
2023/09/11 02:17:47;;;;;;;11.00;9.90;;;;;;;20.63;81.56;156669.09;5058818;28;20570;-87
2023/09/11 02:20:14;;;;;;;11.60;10.50;;;;;;;20.60;81.57;156659.94;5055931;28;20457;-86
2023/09/11 02:22:42;;;;;;;11.33;10.13;;;;;;;20.58;82.33;156654.75;5058018;28;20469;-87
2023/09/11 02:25:12;;;;;;;12.17;11.07;;;;;;;20.52;82.54;156639.06;5058276;28;20477;-86
2023/09/11 02:27:41;;;;;;;11.23;10.10;;;;;;;20.49;82.80;156631.28;5047775;28;20474;-87
2023/09/11 02:30:11;;;;;;;11.87;9.70;;;;;;;20.45;82.99;156622.16;5048623;28;20819;-87
2023/09/11 02:32:37;;;;;;;12.03;10.20;;;;;;;20.39;84.11;156606.47;5031986;28;20465;-87
2023/09/11 02:35:08;;;;;;;11.50;10.30;;;;;;;20.39;84.00;156606.47;5063722;28;20563;-86
2023/09/11 02:37:35;;;;;;;11.60;10.40;;;;;;;20.33;84.54;156590.81;5067279;28;20553;-87
2023/09/11 02:40:07;;;;;;;11.30;10.20;;;;;;;20.31;84.62;156585.63;5046942;28;20498;-87
2023/09/11 02:42:33;;;;;;;10.80;9.70;;;;;;;20.29;84.71;156580.41;5031244;28;20446;-88
2023/09/11 02:45:00;;;;;;;12.03;10.20;;;;;;;20.28;84.86;156577.78;5073214;28;20549;-87
2023/09/11 02:47:27;;;;;;;11.13;10.00;;;;;;;20.25;85.04;156570.00;5051144;28;20430;-87
2023/09/11 02:49:54;;;;;;;12.30;11.10;;;;;;;20.21;85.45;156559.50;5065004;28;21074;-87
2023/09/11 02:52:23;;;;;;;11.73;10.53;;;;;;;20.20;85.38;156556.84;5031611;28;20455;-87
2023/09/11 02:54:49;;;;;;;13.00;11.70;;;;;;;20.18;85.27;156551.66;5052947;28;20615;-87
2023/09/11 02:57:20;;;;;;;11.63;10.10;;;;;;;20.19;85.41;156552.97;5058209;28;20453;-87
2023/09/11 02:59:54;;;;;;;11.43;10.33;;;;;;;20.17;85.49;156547.75;5039087;28;20447;-87
2023/09/11 03:02:20;;;;;;;11.77;10.53;;;;;;;20.12;85.32;156536.00;5063196;28;20543;-87
2023/09/11 03:04:50;;;;;;;12.77;11.50;;;;;;;20.10;86.20;156529.47;5034900;28;20988;-87
2023/09/11 03:07:17;;;;;;;13.20;11.03;;;;;;;20.04;85.74;156516.44;5049763;28;20459;-87
2023/09/11 03:09:45;;;;;;;11.20;10.10;;;;;;;20.08;85.77;156525.59;5049432;28;20584;-87
2023/09/11 03:12:12;;;;;;;12.10;10.90;;;;;;;20.04;86.22;156516.44;5068145;28;21001;-87
2023/09/11 03:14:40;;;;;;;11.70;10.40;;;;;;;19.99;86.29;156503.41;5067540;28;20437;-87
2023/09/11 03:17:10;;;;;;;12.57;11.20;;;;;;;19.97;86.00;156496.88;5041430;28;20467;-88
2023/09/11 03:19:40;;;;;;;10.87;9.77;;;;;;;19.95;86.46;156491.69;5047665;28;20447;-87
2023/09/11 03:22:10;;;;;;;15.23;11.40;;;;;;;19.92;86.23;156483.84;5047204;28;20463;-87
2023/09/11 03:24:37;;;;;;;12.10;10.90;;;;;;;19.89;86.57;156477.34;5053930;28;20469;-87
2023/09/11 03:27:04;;;;;;;11.00;9.90;;;;;;;19.90;86.42;156478.66;5046342;28;20548;-87
2023/09/11 03:29:31;;;;;;;11.33;10.13;;;;;;;19.91;86.20;156481.22;5030479;28;20439;-87
2023/09/11 03:31:59;;;;;;;11.63;10.43;;;;;;;19.93;86.48;156487.78;5046833;28;20447;-87
2023/09/11 03:34:26;;;;;;;11.60;10.40;;;;;;;19.87;86.14;156470.81;5032471;28;21179;-87
2023/09/11 03:36:53;;;;;;;12.50;10.73;;;;;;;19.83;86.50;156460.41;5050149;28;20436;-87
2023/09/11 03:39:20;;;;;;;11.13;10.13;;;;;;;19.80;86.73;156452.59;5050234;28;20438;-86
2023/09/11 03:41:47;;;;;;;11.27;10.03;;;;;;;19.78;86.66;156448.63;5046340;28;20463;-87
2023/09/11 03:44:16;;;;;;;11.80;10.60;;;;;;;19.74;87.07;156436.91;5038506;28;20474;-75
2023/09/11 03:46:43;;;;;;;11.70;10.63;;;;;;;19.73;87.32;156434.28;5048823;28;20437;-75
2023/09/11 03:49:11;;;;;;;11.10;10.00;;;;;;;19.78;87.14;156447.31;5068547;28;20448;-75
2023/09/11 03:51:38;;;;;;;10.60;9.60;;;;;;;19.75;87.44;156439.56;5068167;28;20445;-75
2023/09/11 03:54:07;;;;;;;12.33;11.13;;;;;;;19.76;87.05;156443.44;5035778;28;20463;-75
2023/09/11 03:56:33;;;;;;;11.77;10.57;;;;;;;19.71;86.83;156430.41;5080595;28;20591;-75
2023/09/11 03:59:00;;;;;;;11.60;10.57;;;;;;;19.68;87.00;156421.25;5068132;28;20464;-75
2023/09/11 04:01:27;;;;;;;11.27;10.17;;;;;;;19.64;87.13;156410.84;5059266;28;21152;-75
2023/09/11 04:03:53;;;;;;;11.47;10.30;;;;;;;19.55;87.99;156388.69;5061876;28;20454;-75
2023/09/11 04:06:21;;;;;;;11.10;9.80;;;;;;;19.51;87.75;156378.28;5049921;28;20470;-75
2023/09/11 04:08:48;;;;;;;11.47;10.20;;;;;;;19.52;87.89;156380.84;5083088;28;20529;-75
2023/09/11 04:11:15;;;;;;;11.50;10.30;;;;;;;19.53;87.48;156382.16;5044524;28;20554;-75
2023/09/11 04:13:43;;;;;;;11.33;10.23;;;;;;;19.50;87.79;156374.34;5066043;28;20453;-75
2023/09/11 04:16:09;;;;;;;12.40;11.10;;;;;;;19.40;88.34;156350.91;5058500;28;20442;-75
2023/09/11 04:18:36;;;;;;;11.67;10.57;;;;;;;19.32;88.65;156328.69;5046537;28;20441;-74
2023/09/11 04:21:03;;;;;;;12.17;10.97;;;;;;;19.24;88.81;156309.13;5050569;28;20480;-75
2023/09/11 04:23:31;;;;;;;11.40;10.40;;;;;;;19.22;89.08;156302.63;5045896;28;20439;-75
2023/09/11 04:25:58;;;;;;;11.53;10.33;;;;;;;19.27;89.45;156316.91;5080135;28;20470;-74
2023/09/11 04:28:25;;;;;;;11.00;9.70;;;;;;;19.28;88.84;156318.22;5066675;28;20844;-74
2023/09/11 04:30:51;;;;;;;11.97;10.77;;;;;;;19.26;88.94;156313.03;5030004;28;20454;-74
2023/09/11 04:33:20;;;;;;;11.97;10.87;;;;;;;19.19;89.68;156296.13;5063675;28;20445;-75
2023/09/11 04:35:47;;;;;;;12.47;11.20;;;;;;;19.13;90.10;156280.47;5046312;28;20772;-75
2023/09/11 04:38:14;;;;;;;13.07;11.70;;;;;;;19.07;90.47;156263.50;5050096;28;20481;-75
2023/09/11 04:40:41;;;;;;;11.20;10.10;;;;;;;19.05;90.55;156259.59;5050472;28;20461;-75
2023/09/11 04:43:08;;;;;;;11.57;10.37;;;;;;;19.05;90.77;156258.28;5044896;28;20900;-75
2023/09/11 04:45:35;;;;;;;12.17;11.00;;;;;;;19.03;90.28;156254.41;5056098;28;20553;-75
2023/09/11 04:48:02;;;;;;;11.23;10.10;;;;;;;18.98;90.94;156241.38;5063003;28;20487;-75
2023/09/11 04:50:29;;;;;;;12.00;10.80;;;;;;;18.93;90.44;156228.31;5048678;28;20522;-75
2023/09/11 04:52:56;;;;;;;13.00;11.33;;;;;;;18.89;90.68;156217.91;5065604;28;20549;-75
2023/09/11 04:55:23;;;;;;;11.70;10.33;;;;;;;18.84;91.12;156206.19;5049306;28;20437;-75
2023/09/11 04:57:51;;;;;;;12.80;9.97;;;;;;;18.79;90.99;156191.84;5034286;28;20463;-75
2023/09/11 05:00:18;;;;;;;11.13;10.20;;;;;;;18.77;91.86;156187.91;5049275;28;20867;-75
2023/09/11 05:02:46;;;;;;;12.50;11.03;;;;;;;18.76;92.05;156184.03;5079513;28;20527;-75
2023/09/11 05:05:12;;;;;;;11.53;10.43;;;;;;;18.76;92.29;156184.03;5055687;28;20520;-75
2023/09/11 05:07:39;;;;;;;11.90;10.80;;;;;;;18.75;92.35;156182.72;5053984;28;20482;-75
2023/09/11 05:10:08;;;;;;;11.77;10.57;;;;;;;18.78;92.12;156190.53;5039689;28;20498;-75
2023/09/11 05:12:36;;;;;;;11.30;10.03;;;;;;;18.82;92.26;156199.69;5044769;28;20829;-74
2023/09/11 05:15:05;;;;;;;14.20;11.13;;;;;;;18.88;92.23;156215.28;5040091;28;20458;-74
2023/09/11 05:17:32;;;;;;;11.60;10.40;;;;;;;18.87;92.67;156212.72;5069496;28;21132;-75
2023/09/11 05:19:59;;;;;;;12.40;11.30;;;;;;;18.88;92.51;156215.28;5063762;28;20449;-75
2023/09/11 05:22:25;;;;;;;11.60;10.40;;;;;;;18.93;93.12;156228.31;5058028;28;20464;-74
2023/09/11 05:24:53;;;;;;;12.70;11.50;;;;;;;18.94;92.39;156230.94;5055236;28;20482;-75
2023/09/11 05:27:21;;;;;;;12.13;10.73;;;;;;;18.98;92.95;156240.06;5053464;28;21143;-76
2023/09/11 05:29:48;;;;;;;11.60;10.40;;;;;;;18.99;92.61;156243.97;5052945;28;20951;-75
2023/09/11 05:32:18;;;;;;;12.77;11.50;;;;;;;19.01;92.78;156249.16;5059362;28;20456;-75
2023/09/11 05:34:44;;;;;;;12.10;10.90;;;;;;;19.04;92.75;156256.97;5053423;28;20474;-75
2023/09/11 05:37:11;;;;;;;14.07;10.77;;;;;;;19.05;93.02;156259.59;5069754;28;20578;-74
2023/09/11 05:39:53;;;;;;;12.10;10.90;;;;;;;19.05;92.81;156258.28;5039156;28;20762;-74
2023/09/11 05:42:22;;;;;;;11.57;10.47;;;;;;;19.04;93.44;156255.66;5055999;28;20478;-74
2023/09/11 05:44:52;;;;;;;12.50;11.20;;;;;;;19.03;93.35;156253.09;5057521;28;20471;-75
2023/09/11 05:47:20;;;;;;;12.77;11.13;;;;;;;19.05;93.71;156258.28;5055888;28;20460;-74
2023/09/11 05:49:49;;;;;;;12.57;11.30;;;;;;;19.05;93.53;156258.28;5057177;28;20444;-75
2023/09/11 05:52:15;;;;;;;13.57;11.43;;;;;;;19.09;93.47;156270.00;5052877;28;20454;-75
2023/09/11 05:54:42;;;;;;;12.57;10.67;;;;;;;19.16;93.55;156288.28;5054158;28;22132;-74
2023/09/11 05:57:08;;;;;;;12.23;10.90;;;;;;;19.22;92.94;156303.88;5055391;28;20980;-75
2023/09/11 05:59:35;;;;;;;12.73;11.47;;;;;;;19.33;93.24;156332.56;5063108;28;20446;-75
2023/09/11 06:02:01;;;;;;;10.60;9.53;;;;;;;19.48;92.49;156370.44;5056242;28;20462;-75
2023/09/11 06:04:30;;;;;;;11.63;10.50;;;;;;;19.70;91.42;156426.47;5053962;28;20562;-74
2023/09/11 06:06:57;;;;;;;12.70;11.50;;;;;;;19.95;90.41;156491.69;5055484;28;20826;-75
2023/09/11 06:09:26;;;;;;;12.53;11.27;;;;;;;20.20;89.04;156556.84;5054880;28;20449;-75
2023/09/11 06:11:53;;;;;;;12.93;11.63;;;;;;;20.45;87.67;156622.16;5055152;28;20446;-74
2023/09/11 06:14:19;;;;;;;13.07;10.80;;;;;;;20.66;86.66;156675.63;5062750;28;20485;-75
2023/09/11 06:16:46;;;;;;;12.90;11.50;;;;;;;20.87;86.33;156730.41;5054516;28;20442;-75
2023/09/11 06:19:12;;;;;;;11.60;10.43;;;;;;;21.03;84.67;156770.88;5053180;28;20827;-75
2023/09/11 06:21:40;;;;;;;13.03;10.80;;;;;;;21.29;84.07;156837.50;5054839;28;20450;-75
2023/09/11 06:24:07;;;;;;;12.07;10.90;;;;;;;21.53;83.02;156900.13;5062212;28;20450;-75
2023/09/11 06:26:33;;;;;;;12.93;11.53;;;;;;;21.72;81.87;156951.06;5055040;28;20866;-75
2023/09/11 06:29:00;;;;;;;11.47;10.37;;;;;;;21.95;81.44;157008.56;5053016;28;20473;-75
2023/09/11 06:31:27;;;;;;;12.33;11.07;;;;;;;22.17;80.33;157066.00;5054515;28;20451;-75
2023/09/11 06:33:54;;;;;;;12.27;10.90;;;;;;;22.33;79.35;157107.78;5052952;28;20549;-75
2023/09/11 06:36:20;;;;;;;12.30;11.10;;;;;;;22.53;78.99;157160.03;5059890;28;20564;-75
2023/09/11 06:38:48;;;;;;;12.30;11.20;;;;;;;22.70;78.36;157203.19;5054321;28;20462;-75
2023/09/11 06:41:15;;;;;;;12.63;11.33;;;;;;;22.89;77.99;157252.84;5053800;28;20466;-75
2023/09/11 06:43:42;;;;;;;12.40;11.20;;;;;;;23.03;77.23;157289.47;5053134;28;20454;-75
2023/09/11 06:46:08;;;;;;;12.20;11.00;;;;;;;23.20;76.88;157332.53;5054342;28;20475;-75
2023/09/11 06:48:35;;;;;;;12.63;11.33;;;;;;;23.40;76.35;157386.22;5056055;28;20508;-75
2023/09/11 06:51:01;;;;;;;12.97;11.70;;;;;;;23.63;75.77;157445.03;5055852;28;20459;-75
2023/09/11 06:53:28;;;;;;;11.57;10.47;;;;;;;23.84;74.80;157499.94;5055177;28;20781;-75
2023/09/11 06:55:56;;;;;;;13.10;10.57;;;;;;;24.03;73.76;157549.63;5053698;28;20942;-75
2023/09/11 06:58:23;;;;;;;12.00;10.83;;;;;;;24.19;72.29;157591.53;5054365;28;20477;-75
2023/09/11 07:00:51;;;;;;;11.90;10.80;;;;;;;24.27;71.97;157609.81;5061337;28;20434;-75
2023/09/11 07:03:19;;;;;;;13.00;9.80;;;;;;;24.47;71.49;157662.13;5051761;28;20980;-75
2023/09/11 07:05:45;;;;;;;11.17;10.17;;;;;;;24.66;70.77;157711.84;5052375;28;20863;-75
2023/09/11 07:08:12;;;;;;;11.50;10.37;;;;;;;24.76;69.51;157739.31;5053977;28;20458;-74
2023/09/11 07:10:38;;;;;;;10.60;9.60;;;;;;;24.87;69.40;157766.84;5055315;28;20498;-79
2023/09/11 07:13:06;;;;;;;13.13;10.53;;;;;;;25.04;69.12;157811.34;5053075;28;20491;-76
2023/09/11 07:15:33;;;;;;;10.83;9.83;;;;;;;25.17;68.62;157844.03;5053927;28;20461;-77
2023/09/11 07:18:00;;;;;;;12.47;9.90;;;;;;;25.22;68.67;157858.44;5059561;28;20461;-77
2023/09/11 07:20:26;;;;;;;11.13;10.20;;;;;;;25.32;67.87;157884.59;5053333;28;20446;-77
2023/09/11 07:22:53;;;;;;;10.83;9.80;;;;;;;25.48;68.08;157923.91;5053556;28;20467;-77
2023/09/11 07:25:22;;;;;;;11.10;9.87;;;;;;;25.53;68.19;157938.31;5054011;28;20478;-77
2023/09/11 07:27:49;;;;;;;11.07;9.97;;;;;;;25.60;68.05;157955.34;5072922;28;20466;-77
2023/09/11 07:30:17;;;;;;;11.70;10.50;;;;;;;25.68;67.60;157977.56;5073113;28;20449;-77
2023/09/11 07:32:44;;;;;;;10.87;9.77;;;;;;;25.83;66.42;158016.88;5057598;28;20463;-77
2023/09/11 07:35:10;;;;;;;11.90;10.73;;;;;;;25.95;66.90;158046.94;5054417;28;20485;-77
2023/09/11 07:37:39;;;;;;;11.20;10.20;;;;;;;26.08;65.62;158079.72;5052870;28;20464;-77
2023/09/11 07:40:08;;;;;;;12.20;10.90;;;;;;;26.17;65.26;158104.63;5053421;28;20485;-77
2023/09/11 07:42:36;;;;;;;11.07;10.00;;;;;;;26.31;65.25;158141.31;5053653;28;20470;-77
2023/09/11 07:45:03;;;;;;;10.97;9.57;;;;;;;26.47;64.66;158183.22;5057899;28;20514;-77
2023/09/11 07:47:31;;;;;;;10.57;9.57;;;;;;;26.57;63.73;158209.41;5052332;28;20482;-77
2023/09/11 07:49:57;;;;;;;11.77;10.57;;;;;;;26.65;63.71;158229.03;5054140;28;20896;-77
2023/09/11 07:52:24;;;;;;;12.20;10.80;;;;;;;26.68;64.18;158235.59;5054711;28;20550;-77
2023/09/11 07:54:50;;;;;;;12.63;11.43;;;;;;;26.76;62.89;158257.88;5071185;28;20451;-76
2023/09/11 07:57:17;;;;;;;12.30;11.13;;;;;;;26.77;63.17;158259.19;5067949;28;20505;-76
2023/09/11 07:59:44;;;;;;;13.93;11.03;;;;;;;26.83;63.21;158274.91;5053250;28;20454;-76
2023/09/11 08:02:10;;;;;;;11.27;10.23;;;;;;;26.91;63.89;158295.88;5054631;28;20443;-76
2023/09/11 08:04:39;;;;;;;13.33;10.30;;;;;;;26.96;63.26;158308.97;5053731;28;20565;-78
2023/09/11 08:07:05;;;;;;;11.63;10.60;;;;;;;27.01;64.04;158322.06;5053628;28;20477;-78
2023/09/11 08:09:32;;;;;;;11.00;10.00;;;;;;;27.14;62.99;158357.44;5052387;28;20450;-78
2023/09/11 08:12:00;;;;;;;12.80;11.60;;;;;;;27.19;62.47;158370.56;5053936;28;20533;-78
2023/09/11 08:14:26;;;;;;;12.07;9.90;;;;;;;27.34;62.35;158408.56;5054037;28;20446;-78
2023/09/11 08:16:53;;;;;;;14.33;11.27;;;;;;;27.42;62.24;158428.28;5054223;28;20964;-77
2023/09/11 08:19:19;;;;;;;11.27;9.67;;;;;;;27.48;62.48;158444.00;5054783;28;20532;-77
2023/09/11 08:21:48;;;;;;;12.70;11.50;;;;;;;27.53;61.43;158458.44;5051066;28;20811;-77
2023/09/11 08:24:14;;;;;;;11.93;10.80;;;;;;;27.54;61.86;158461.03;5054443;28;20895;-77
2023/09/11 08:26:41;;;;;;;15.13;10.87;;;;;;;27.63;61.04;158483.31;5051093;28;20473;-77
2023/09/11 08:29:10;;;;;;;11.57;10.40;;;;;;;27.70;61.67;158502.97;5053859;28;20490;-77
2023/09/11 08:31:37;;;;;;;12.27;10.70;;;;;;;27.71;61.68;158504.28;5052809;28;20536;-77
2023/09/11 08:34:04;;;;;;;13.10;9.83;;;;;;;27.73;62.06;158510.84;5054931;28;20627;-77
2023/09/11 08:36:31;;;;;;;11.07;9.93;;;;;;;27.82;60.09;158533.13;5055301;28;20447;-77
2023/09/11 08:38:58;;;;;;;11.60;10.37;;;;;;;27.89;59.79;158550.16;5074389;28;20465;-77
2023/09/11 08:41:26;;;;;;;12.17;10.87;;;;;;;27.72;60.56;158506.94;5055963;28;20802;-77
2023/09/11 08:43:53;;;;;;;12.20;10.17;;;;;;;27.65;60.79;158488.53;5071637;28;21061;-83
2023/09/11 08:46:20;;;;;;;11.23;10.13;;;;;;;27.62;61.54;158482.00;5056292;28;21003;-83
2023/09/11 08:48:48;;;;;;;13.27;9.43;;;;;;;27.63;61.83;158484.63;5052492;28;20557;-83
2023/09/11 08:51:23;;;;;;;12.67;10.97;;;;;;;27.63;61.48;158484.63;5054768;28;20450;-83
2023/09/11 08:53:51;;;;;;;14.00;11.10;;;;;;;27.66;60.65;158492.50;5055661;28;20974;-83
2023/09/11 08:56:19;;;;;;;12.63;11.33;;;;;;;27.63;61.67;158484.63;5063656;28;20447;-84
2023/09/11 08:58:48;;;;;;;10.87;9.87;;;;;;;27.69;61.62;158499.06;5056534;28;20446;-84
2023/09/11 09:01:15;;;;;;;11.43;10.33;;;;;;;27.83;60.87;158534.44;5060868;28;20449;-83
2023/09/11 09:03:42;;;;;;;12.70;10.87;;;;;;;27.87;62.07;158544.91;5054407;28;20547;-83
2023/09/11 09:06:09;;;;;;;10.83;9.83;;;;;;;27.99;60.58;158576.34;5039242;28;21366;-83
2023/09/11 09:08:36;;;;;;;11.70;10.57;;;;;;;27.83;60.76;158534.44;5046939;28;20974;-83
2023/09/11 09:11:06;;;;;;;10.70;9.60;;;;;;;27.57;62.59;158468.91;5057568;28;20981;-84
2023/09/11 09:13:35;;;;;;;12.50;11.30;;;;;;;27.47;62.33;158442.69;5056514;28;20541;-83
2023/09/11 09:16:02;;;;;;;11.77;10.57;;;;;;;27.33;62.77;158405.94;5058997;28;20458;-84
2023/09/11 09:18:29;;;;;;;11.50;10.50;;;;;;;27.28;63.19;158391.50;5057774;28;20826;-83
2023/09/11 09:20:56;;;;;;;11.83;10.73;;;;;;;27.40;64.03;158424.38;5054877;28;20562;-83
2023/09/11 09:23:32;;;;;;;11.40;10.20;;;;;;;27.53;62.82;158458.44;5058804;28;20552;-83
2023/09/11 09:26:06;;;;;;;11.83;10.73;;;;;;;27.58;62.29;158471.53;5064661;28;20470;-84
2023/09/11 09:28:35;;;;;;;11.73;10.53;;;;;;;27.46;62.34;158440.06;5079408;28;20480;-83
2023/09/11 09:31:02;;;;;;;11.93;10.77;;;;;;;27.41;62.13;158426.94;5073987;28;20450;-82
2023/09/11 09:33:30;;;;;;;14.43;10.30;;;;;;;27.51;62.96;158453.16;5059030;28;20455;-82
2023/09/11 09:35:57;;;;;;;11.10;10.10;;;;;;;27.61;61.45;158478.09;5062132;28;20501;-82
2023/09/11 09:38:26;;;;;;;12.20;10.97;;;;;;;27.55;60.69;158463.66;5056746;28;20517;-83
2023/09/11 09:40:54;;;;;;;10.47;9.57;;;;;;;27.60;60.42;158476.75;5054662;28;20466;-83
2023/09/11 09:43:21;;;;;;;11.27;10.10;;;;;;;27.57;60.40;158467.56;5063111;28;20536;-82
2023/09/11 09:45:49;;;;;;;12.60;10.00;;;;;;;27.49;59.55;158447.94;5058335;28;20476;-83
2023/09/11 09:48:17;;;;;;;10.80;9.80;;;;;;;27.46;60.79;158438.75;5056909;28;20472;-83
2023/09/11 09:50:50;;;;;;;12.60;9.90;;;;;;;27.62;61.20;158482.00;5055138;28;20466;-82
2023/09/11 09:53:24;;;;;;;11.40;10.30;;;;;;;27.64;61.02;158485.97;5058037;28;20492;-83
2023/09/11 09:55:50;;;;;;;11.50;10.33;;;;;;;27.77;61.45;158520.03;5056220;28;20508;-83
2023/09/11 09:58:20;;;;;;;11.17;9.97;;;;;;;27.82;59.95;158531.81;5058377;28;20476;-82
2023/09/11 10:00:46;;;;;;;11.73;10.57;;;;;;;27.62;60.72;158482.00;5057479;28;20462;-83
2023/09/11 10:03:14;;;;;;;12.17;10.83;;;;;;;27.62;61.18;158482.00;5061539;28;20893;-82
2023/09/11 10:05:42;;;;;;;11.63;10.27;;;;;;;27.74;59.60;158513.47;5057793;28;20864;-82
2023/09/11 10:08:09;;;;;;;13.40;10.40;;;;;;;27.87;60.72;158546.25;5060828;28;20850;-82
2023/09/11 10:10:36;;;;;;;11.97;10.73;;;;;;;28.01;59.64;158581.63;5056868;28;20462;-82
2023/09/11 10:13:06;;;;;;;11.67;10.47;;;;;;;27.92;60.37;158559.34;5055065;28;20840;-82
2023/09/11 10:15:35;;;;;;;12.03;10.80;;;;;;;27.98;60.39;158575.09;5054072;28;20545;-82
2023/09/11 10:18:02;;;;;;;11.57;10.57;;;;;;;27.90;60.51;158552.78;5058657;28;20457;-82
2023/09/11 10:20:31;;;;;;;11.70;10.70;;;;;;;27.72;60.38;158508.19;5052335;28;20496;-82
2023/09/11 10:22:59;;;;;;;13.00;10.80;;;;;;;27.82;60.13;158531.81;5055849;28;20459;-82
2023/09/11 10:25:28;;;;;;;11.50;10.03;;;;;;;27.89;61.03;158551.47;5056068;28;20459;-82
2023/09/11 10:27:58;;;;;;;11.03;10.00;;;;;;;28.02;59.97;158584.28;5055937;28;20488;-83
2023/09/11 10:30:26;;;;;;;11.30;10.20;;;;;;;27.91;59.69;158555.38;5054433;28;21038;-82
2023/09/11 10:32:59;;;;;;;13.57;10.43;;;;;;;27.85;60.12;158541.00;5058744;28;20454;-83
2023/09/11 10:35:26;;;;;;;11.80;10.17;;;;;;;27.84;59.74;158537.03;5054329;28;21163;-82
2023/09/11 10:37:56;;;;;;;11.73;9.87;;;;;;;27.87;60.03;158544.91;5053796;28;20446;-82
2023/09/11 10:40:23;;;;;;;11.83;10.80;;;;;;;27.86;59.85;158542.28;5053208;28;20439;-82
2023/09/11 10:42:50;;;;;;;12.07;10.57;;;;;;;27.82;59.68;158533.13;5052078;28;20471;-82
2023/09/11 10:45:27;;;;;;;11.53;10.33;;;;;;;27.75;60.70;158516.06;5053808;28;20470;-83
2023/09/11 10:47:54;;;;;;;15.23;10.23;;;;;;;27.76;59.64;158517.41;5057953;28;20481;-81
2023/09/11 10:50:24;;;;;;;11.10;10.00;;;;;;;27.67;59.81;158495.09;5053076;28;20544;-83
2023/09/11 10:52:55;;;;;;;11.00;9.90;;;;;;;27.64;59.90;158487.22;5053808;28;20454;-83
2023/09/11 10:55:23;;;;;;;11.63;10.03;;;;;;;27.72;59.26;158508.19;5051006;28;20963;-82
2023/09/11 10:57:52;;;;;;;12.30;10.43;;;;;;;27.94;57.34;158564.56;5055283;28;20463;-82
2023/09/11 11:00:19;;;;;;;10.83;9.73;;;;;;;27.85;57.21;158539.69;5053523;28;20446;-82
2023/09/11 11:02:46;;;;;;;12.07;9.27;;;;;;;28.00;56.74;158579.00;5052285;28;21495;-82
2023/09/11 11:05:14;;;;;;;11.40;9.93;;;;;;;28.05;55.40;158593.47;5057825;28;20586;-81
2023/09/11 11:07:41;;;;;;;10.53;9.50;;;;;;;28.05;56.21;158592.16;5052748;28;20473;-81
2023/09/11 11:10:12;;;;;;;11.40;10.23;;;;;;;28.01;55.54;158581.63;5054107;28;20505;-81
2023/09/11 11:12:40;;;;;;;10.97;9.73;;;;;;;27.97;55.66;158572.44;5055918;28;20477;-82
2023/09/11 11:15:21;;;;;;;15.13;9.80;;;;;;;28.07;56.00;158597.38;5057696;28;20458;-82